createdAt,value
2018-11-25T00:00:16.153Z,3.88
2018-11-25T00:02:44.794Z,3.82
2018-11-25T00:05:13.431Z,3.85
2018-11-25T00:07:42.041Z,3.91
2018-11-25T00:10:10.710Z,3.97
2018-11-25T00:12:40.317Z,3.97
2018-11-25T00:15:09.686Z,3.94
2018-11-25T00:17:38.362Z,3.97
2018-11-25T00:20:10.121Z,3.79
2018-11-25T00:22:39.347Z,3.77
2018-11-25T00:25:10.413Z,3.67
2018-11-25T00:27:39.151Z,3.60
2018-11-25T00:30:14.166Z,3.73
2018-11-25T00:32:42.840Z,3.78
2018-11-25T00:35:12.546Z,2.85
2018-11-25T00:37:47.987Z,3.63
2018-11-25T00:40:17.149Z,3.71
2018-11-25T00:42:46.154Z,3.74
2018-11-25T00:45:18.169Z,3.76
2018-11-25T00:47:46.992Z,3.79
2018-11-25T00:50:15.853Z,3.83
2018-11-25T00:52:45.099Z,3.96
2018-11-25T00:55:14.915Z,3.97
2018-11-25T00:57:43.557Z,3.98
2018-11-25T01:00:16.248Z,3.98
2018-11-25T01:02:45.199Z,3.96
2018-11-25T01:05:14.267Z,3.87
2018-11-25T01:07:42.942Z,3.91
2018-11-25T01:10:14.422Z,3.96
2018-11-25T01:12:43.191Z,3.85
2018-11-25T01:15:12.948Z,3.88
2018-11-25T01:17:41.617Z,3.91
2018-11-25T01:20:11.807Z,3.91
2018-11-25T01:22:40.463Z,3.81
2018-11-25T01:25:10.280Z,3.86
2018-11-25T01:27:39.004Z,3.79
2018-11-25T01:30:14.749Z,3.86
2018-11-25T01:32:43.420Z,3.84
2018-11-25T01:35:12.736Z,3.88
2018-11-25T01:37:41.577Z,3.93
2018-11-25T01:40:12.525Z,4.00
2018-11-25T01:42:41.204Z,3.97
2018-11-25T01:45:13.023Z,3.91
2018-11-25T01:47:41.661Z,3.90
2018-11-25T01:50:11.665Z,3.99
2018-11-25T01:52:40.398Z,4.04
2018-11-25T01:55:10.406Z,4.01
2018-11-25T01:57:39.095Z,3.95
2018-11-25T02:00:18.895Z,3.94
2018-11-25T02:02:47.598Z,3.97
2018-11-25T02:05:16.344Z,3.95
2018-11-25T02:07:44.987Z,3.98
2018-11-25T02:10:18.452Z,3.95
2018-11-25T02:12:47.213Z,3.81
2018-11-25T02:15:16.521Z,3.79
2018-11-25T02:17:45.193Z,3.77
2018-11-25T02:20:18.163Z,3.76
2018-11-25T02:22:46.824Z,3.65
2018-11-25T02:25:15.534Z,3.62
2018-11-25T02:27:44.205Z,3.51
2018-11-25T02:30:14.394Z,3.56
2018-11-25T02:32:43.183Z,3.60
2018-11-25T02:35:12.704Z,3.70
2018-11-25T02:37:41.367Z,3.75
2018-11-25T02:40:11.365Z,3.75
2018-11-25T02:42:40.101Z,3.81
2018-11-25T02:45:12.839Z,3.90
2018-11-25T02:47:41.510Z,3.85
2018-11-25T02:50:24.968Z,3.81
2018-11-25T02:52:54.184Z,3.84
2018-11-25T02:55:24.063Z,3.88
2018-11-25T02:57:52.797Z,3.80
2018-11-25T03:00:21.520Z,3.83
2018-11-25T03:02:50.180Z,3.90
2018-11-25T03:05:18.909Z,3.96
2018-11-25T03:07:47.582Z,3.97
2018-11-25T03:10:16.318Z,4.05
2018-11-25T03:12:45.036Z,4.04
2018-11-25T03:15:15.644Z,3.96
2018-11-25T03:17:44.369Z,3.93
2018-11-25T03:20:15.063Z,3.94
2018-11-25T03:22:43.781Z,4.02
2018-11-25T03:25:13.738Z,4.11
2018-11-25T03:27:42.406Z,4.02
2018-11-25T03:30:21.621Z,3.83
2018-11-25T03:32:52.340Z,3.72
2018-11-25T03:35:21.105Z,3.60
2018-11-25T03:37:49.897Z,3.54
2018-11-25T03:40:19.456Z,3.55
2018-11-25T03:42:48.193Z,3.69
2018-11-25T03:45:17.863Z,3.65
2018-11-25T03:47:46.837Z,3.65
2018-11-25T03:50:15.902Z,3.67
2018-11-25T03:52:44.573Z,3.63
2018-11-25T03:55:14.987Z,2.34
2018-11-25T03:57:43.636Z,3.39
2018-11-25T04:00:13.710Z,2.90
2018-11-25T04:02:42.385Z,3.38
2018-11-25T04:05:12.279Z,3.43
2018-11-25T04:07:40.917Z,3.51
2018-11-25T04:10:11.703Z,3.47
2018-11-25T04:12:40.371Z,3.49
2018-11-25T04:15:14.522Z,3.57
2018-11-25T04:17:43.284Z,3.53
2018-11-25T04:20:14.162Z,3.58
2018-11-25T04:22:42.956Z,3.57
2018-11-25T04:25:12.197Z,3.63
2018-11-25T04:27:40.865Z,3.53
2018-11-25T04:30:24.354Z,3.57
2018-11-25T04:32:53.029Z,3.53
2018-11-25T04:35:21.699Z,3.49
2018-11-25T04:37:50.336Z,3.43
2018-11-25T04:40:19.333Z,3.40
2018-11-25T04:42:48.080Z,3.37
2018-11-25T04:45:17.591Z,3.38
2018-11-25T04:47:46.875Z,3.37
2018-11-25T04:50:18.373Z,3.35
2018-11-25T04:52:47.094Z,3.37
2018-11-25T04:55:16.105Z,3.40
2018-11-25T04:57:49.640Z,3.48
2018-11-25T05:00:18.591Z,3.43
2018-11-25T05:02:47.341Z,3.54
2018-11-25T05:05:16.375Z,3.56
2018-11-25T05:07:45.067Z,3.47
2018-11-25T05:10:14.467Z,3.42
2018-11-25T05:12:43.160Z,3.47
2018-11-25T05:15:14.839Z,3.47
2018-11-25T05:17:43.515Z,3.52
2018-11-25T05:20:12.989Z,3.48
2018-11-25T05:22:41.643Z,3.54
2018-11-25T05:25:12.388Z,3.61
2018-11-25T05:27:41.091Z,3.66
2018-11-25T05:30:12.922Z,3.65
2018-11-25T05:32:41.890Z,3.65
2018-11-25T05:35:11.850Z,3.70
2018-11-25T05:37:40.509Z,3.74
2018-11-25T05:40:11.722Z,3.81
2018-11-25T05:42:40.373Z,3.93
2018-11-25T05:45:10.923Z,3.92
2018-11-25T05:47:39.650Z,3.87
2018-11-25T05:50:11.629Z,3.91
2018-11-25T05:52:40.319Z,3.91
2018-11-25T05:55:10.060Z,3.94
2018-11-25T05:57:38.770Z,3.96
2018-11-25T06:00:15.569Z,3.84
2018-11-25T06:02:44.234Z,3.83
2018-11-25T06:05:13.024Z,3.96
2018-11-25T06:07:41.699Z,4.03
2018-11-25T06:10:12.512Z,4.08
2018-11-25T06:12:41.287Z,4.12
2018-11-25T06:15:12.785Z,4.09
2018-11-25T06:17:41.410Z,4.09
2018-11-25T06:20:17.681Z,3.94
2018-11-25T06:22:46.704Z,3.97
2018-11-25T06:25:18.343Z,4.13
2018-11-25T06:27:46.951Z,4.33
2018-11-25T06:30:17.438Z,4.59
2018-11-25T06:32:46.194Z,5.04
2018-11-25T06:35:15.897Z,5.35
2018-11-25T06:37:44.578Z,5.67
2018-11-25T06:40:14.286Z,5.84
2018-11-25T06:42:42.978Z,5.84
2018-11-25T06:45:17.958Z,5.82
2018-11-25T06:47:46.603Z,5.91
2018-11-25T06:50:15.297Z,6.16
2018-11-25T06:52:43.933Z,6.33
2018-11-25T06:55:13.202Z,6.45
2018-11-25T06:57:41.814Z,6.13
2018-11-25T07:00:25.960Z,6.19
2018-11-25T07:02:55.110Z,6.15
2018-11-25T07:05:23.835Z,5.77
2018-11-25T07:07:52.521Z,5.76
2018-11-25T07:10:22.178Z,5.44
2018-11-25T07:12:52.762Z,5.36
2018-11-25T07:15:21.427Z,5.20
2018-11-25T07:17:50.068Z,4.97
2018-11-25T07:20:19.220Z,4.70
2018-11-25T07:22:47.918Z,4.56
2018-11-25T07:25:23.299Z,4.65
2018-11-25T07:27:52.329Z,4.75
2018-11-25T07:30:24.977Z,4.86
2018-11-25T07:32:53.672Z,4.98
2018-11-25T07:35:23.048Z,5.11
2018-11-25T07:37:51.714Z,5.10
2018-11-25T07:40:21.104Z,4.86
2018-11-25T07:42:49.991Z,4.53
2018-11-25T07:45:20.639Z,4.60
2018-11-25T07:47:49.339Z,4.62
2018-11-25T07:50:18.029Z,4.64
2018-11-25T07:52:47.522Z,4.72
2018-11-25T07:55:20.190Z,4.70
2018-11-25T07:57:49.522Z,4.77
2018-11-25T08:00:19.973Z,4.80
2018-11-25T08:02:48.649Z,4.80
2018-11-25T08:05:20.408Z,4.83
2018-11-25T08:07:49.070Z,4.74
2018-11-25T08:10:17.711Z,4.64
2018-11-25T08:12:46.743Z,4.75
2018-11-25T08:15:17.110Z,4.88
2018-11-25T08:17:45.820Z,5.10
2018-11-25T08:20:15.434Z,5.16
2018-11-25T08:22:44.182Z,4.98
2018-11-25T08:25:17.745Z,4.90
2018-11-25T08:27:46.368Z,5.00
2018-11-25T08:30:18.143Z,5.18
2018-11-25T08:32:46.921Z,5.20
2018-11-25T08:35:16.293Z,5.23
2018-11-25T08:37:45.011Z,5.40
2018-11-25T08:40:17.691Z,5.39
2018-11-25T08:42:46.379Z,5.44
2018-11-25T08:45:15.592Z,5.35
2018-11-25T08:47:44.428Z,5.39
2018-11-25T08:50:16.896Z,5.41
2018-11-25T08:52:46.422Z,5.31
2018-11-25T08:55:16.198Z,5.22
2018-11-25T08:57:44.972Z,5.38
2018-11-25T09:00:16.563Z,5.53
2018-11-25T09:02:45.255Z,5.40
2018-11-25T09:05:16.315Z,5.44
2018-11-25T09:07:45.116Z,5.43
2018-11-25T09:10:17.621Z,5.59
2018-11-25T09:12:55.179Z,5.78
2018-11-25T09:15:18.313Z,5.96
2018-11-25T09:17:47.007Z,6.02
2018-11-25T09:20:16.842Z,6.07
2018-11-25T09:22:45.507Z,6.01
2018-11-25T09:25:18.420Z,6.23
2018-11-25T09:27:47.098Z,6.48
2018-11-25T09:30:18.175Z,6.90
2018-11-25T09:32:46.844Z,7.43
2018-11-25T09:35:15.862Z,7.82
2018-11-25T09:37:44.474Z,8.32
2018-11-25T09:40:14.429Z,8.73
2018-11-25T09:42:43.134Z,9.15
2018-11-25T09:45:13.889Z,9.26
2018-11-25T09:47:42.894Z,9.21
2018-11-25T09:50:14.490Z,9.49
2018-11-25T09:52:43.224Z,9.45
2018-11-25T09:55:16.058Z,8.81
2018-11-25T09:57:46.861Z,8.33
2018-11-25T10:00:18.552Z,8.47
2018-11-25T10:02:47.888Z,8.21
2018-11-25T10:05:17.146Z,8.34
2018-11-25T10:07:45.845Z,8.40
2018-11-25T10:10:16.577Z,8.32
2018-11-25T10:12:45.258Z,8.38
2018-11-25T10:15:15.075Z,8.45
2018-11-25T10:17:44.010Z,8.49
2018-11-25T10:20:19.675Z,8.54
2018-11-25T10:22:48.410Z,8.44
2018-11-25T10:25:17.507Z,8.39
2018-11-25T10:27:46.250Z,8.33
2018-11-25T10:30:18.693Z,8.13
2018-11-25T10:32:48.581Z,8.00
2018-11-25T10:35:17.799Z,7.96
2018-11-25T10:37:46.790Z,8.04
2018-11-25T10:40:18.292Z,8.17
2018-11-25T10:42:47.014Z,8.17
2018-11-25T10:45:19.591Z,8.10
2018-11-25T10:47:48.375Z,7.93
2018-11-25T10:50:19.085Z,7.82
2018-11-25T10:52:48.007Z,7.94
2018-11-25T10:55:17.526Z,8.02
2018-11-25T10:57:47.095Z,8.13
2018-11-25T11:00:22.197Z,8.13
2018-11-25T11:02:56.243Z,8.44
2018-11-25T11:05:30.159Z,8.66
2018-11-25T11:07:59.131Z,8.56
2018-11-25T11:10:27.825Z,8.55
2018-11-25T11:12:56.477Z,8.64
2018-11-25T11:15:25.223Z,8.64
2018-11-25T11:17:54.059Z,8.66
2018-11-25T11:20:22.785Z,8.89
2018-11-25T11:22:51.470Z,8.90
2018-11-25T11:25:20.210Z,8.72
2018-11-25T11:27:48.844Z,8.87
2018-11-25T11:30:17.548Z,9.17
2018-11-25T11:32:47.612Z,9.27
2018-11-25T11:35:16.278Z,9.25
2018-11-25T11:37:44.899Z,9.21
2018-11-25T11:40:14.544Z,9.17
2018-11-25T11:42:43.240Z,9.14
2018-11-25T11:45:13.137Z,9.34
2018-11-25T11:47:42.296Z,9.50
2018-11-25T11:50:19.235Z,9.42
2018-11-25T11:52:47.865Z,9.21
2018-11-25T11:55:17.608Z,9.24
2018-11-25T11:57:46.848Z,9.27
2018-11-25T12:00:30.607Z,9.47
2018-11-25T12:02:59.617Z,9.67
2018-11-25T12:05:28.309Z,9.58
2018-11-25T12:07:56.992Z,9.86
2018-11-25T12:10:25.685Z,10.06
2018-11-25T12:12:54.704Z,10.06
2018-11-25T12:15:30.841Z,10.11
2018-11-25T12:17:55.445Z,10.08
2018-11-25T12:20:24.952Z,10.08
2018-11-25T12:22:54.407Z,9.90
2018-11-25T12:25:23.140Z,9.94
2018-11-25T12:27:51.824Z,10.22
2018-11-25T12:30:20.483Z,10.10
2018-11-25T12:32:50.198Z,10.02
2018-11-25T12:35:19.040Z,10.04
2018-11-25T12:37:48.080Z,10.05
2018-11-25T12:40:20.994Z,9.90
2018-11-25T12:42:56.161Z,9.99
2018-11-25T12:45:25.037Z,10.25
2018-11-25T12:47:53.682Z,10.09
2018-11-25T12:50:23.531Z,10.09
2018-11-25T12:52:52.249Z,10.11
2018-11-25T12:55:22.099Z,10.46
2018-11-25T12:57:50.721Z,10.50
2018-11-25T13:00:33.455Z,10.36
2018-11-25T13:03:02.142Z,10.56
2018-11-25T13:05:30.813Z,10.80
2018-11-25T13:07:59.490Z,11.28
2018-11-25T13:10:28.143Z,11.60
2018-11-25T13:12:56.879Z,11.34
2018-11-25T13:15:25.604Z,11.31
2018-11-25T13:17:54.299Z,10.44
2018-11-25T13:20:23.242Z,11.74
2018-11-25T13:22:51.892Z,11.91
2018-11-25T13:25:20.587Z,12.05
2018-11-25T13:27:50.203Z,11.56
2018-11-25T13:30:24.098Z,11.58
2018-11-25T13:32:55.030Z,11.56
2018-11-25T13:35:24.257Z,11.31
2018-11-25T13:37:52.937Z,11.11
2018-11-25T13:40:21.640Z,10.90
2018-11-25T13:42:50.658Z,10.93
2018-11-25T13:45:19.419Z,10.91
2018-11-25T13:47:48.066Z,10.87
2018-11-25T13:50:16.718Z,10.79
2018-11-25T13:52:45.421Z,10.69
2018-11-25T13:55:19.428Z,10.55
2018-11-25T13:57:48.113Z,10.50
2018-11-25T14:00:25.647Z,10.42
2018-11-25T14:02:54.785Z,10.42
2018-11-25T14:05:23.473Z,10.35
2018-11-25T14:07:52.151Z,10.19
2018-11-25T14:10:23.913Z,10.17
2018-11-25T14:12:52.574Z,10.06
2018-11-25T14:15:21.274Z,9.92
2018-11-25T14:17:49.962Z,9.96
2018-11-25T14:20:18.624Z,9.97
2018-11-25T14:22:47.265Z,9.96
2018-11-25T14:25:17.391Z,9.86
2018-11-25T14:27:46.889Z,9.72
2018-11-25T14:30:21.138Z,9.74
2018-11-25T14:32:49.760Z,9.73
2018-11-25T14:35:18.510Z,9.60
2018-11-25T14:37:47.203Z,9.52
2018-11-25T14:40:17.392Z,9.48
2018-11-25T14:42:46.121Z,9.41
2018-11-25T14:45:15.967Z,9.31
2018-11-25T14:47:44.609Z,9.28
2018-11-25T14:50:15.630Z,9.28
2018-11-25T14:52:45.603Z,9.27
2018-11-25T14:55:15.014Z,9.18
2018-11-25T14:57:43.809Z,9.09
2018-11-25T15:00:27.192Z,9.14
2018-11-25T15:03:04.210Z,9.06
2018-11-25T15:05:37.580Z,8.97
2018-11-25T15:08:07.294Z,8.96
2018-11-25T15:10:36.026Z,8.91
2018-11-25T15:13:05.167Z,8.83
2018-11-25T15:15:33.844Z,8.76
2018-11-25T15:18:02.466Z,8.73
2018-11-25T15:20:31.151Z,7.15
2018-11-25T15:23:02.479Z,8.76
2018-11-25T15:25:34.826Z,8.73
2018-11-25T15:28:03.448Z,8.61
2018-11-25T15:30:32.056Z,8.57
2018-11-25T15:33:00.710Z,8.54
2018-11-25T15:35:29.451Z,8.58
2018-11-25T15:37:58.443Z,8.58
2018-11-25T15:40:30.298Z,8.52
2018-11-25T15:42:59.194Z,8.46
2018-11-25T15:45:27.911Z,8.46
2018-11-25T15:48:08.767Z,8.49
2018-11-25T15:50:37.478Z,8.37
2018-11-25T15:53:07.824Z,8.18
2018-11-25T15:55:37.215Z,8.13
2018-11-25T15:58:06.325Z,8.15
2018-11-25T16:00:35.011Z,8.14
2018-11-25T16:03:03.771Z,8.13
2018-11-25T16:05:33.568Z,8.16
2018-11-25T16:08:02.602Z,8.16
2018-11-25T16:10:31.868Z,8.16
2018-11-25T16:13:00.527Z,8.13
2018-11-25T16:15:29.905Z,8.15
2018-11-25T16:17:58.645Z,8.14
2018-11-25T16:20:28.322Z,8.16
2018-11-25T16:23:01.432Z,8.07
2018-11-25T16:25:48.197Z,7.94
2018-11-25T16:28:21.209Z,7.88
2018-11-25T16:30:50.149Z,7.83
2018-11-25T16:33:18.842Z,7.76
2018-11-25T16:35:55.395Z,7.76
2018-11-25T16:38:24.114Z,7.81
2018-11-25T16:40:52.746Z,7.88
2018-11-25T16:43:22.327Z,7.89
2018-11-25T16:45:51.049Z,7.90
2018-11-25T16:48:19.700Z,7.88
2018-11-25T16:50:48.301Z,7.95
2018-11-25T16:53:17.124Z,8.00
2018-11-25T16:55:45.832Z,7.99
2018-11-25T16:58:14.570Z,8.02
2018-11-25T17:00:43.242Z,8.07
2018-11-25T17:03:11.887Z,8.11
2018-11-25T17:05:43.184Z,8.14
2018-11-25T17:08:17.121Z,8.11
2018-11-25T17:10:46.680Z,8.17
2018-11-25T17:13:15.354Z,8.19
2018-11-25T17:15:44.416Z,8.24
2018-11-25T17:18:13.061Z,8.22
2018-11-25T17:20:41.849Z,8.25
2018-11-25T17:23:10.487Z,8.34
2018-11-25T17:25:39.126Z,8.43
2018-11-25T17:28:08.144Z,8.43
2018-11-25T17:30:36.795Z,8.43
2018-11-25T17:33:05.821Z,8.45
2018-11-25T17:35:34.428Z,8.48
2018-11-25T17:38:03.099Z,8.52
2018-11-25T17:40:31.831Z,8.53
2018-11-25T17:43:00.470Z,8.52
2018-11-25T17:45:29.503Z,8.51
2018-11-25T17:47:58.133Z,8.48
2018-11-25T17:50:28.866Z,8.43
2018-11-25T17:52:57.501Z,8.44
2018-11-25T17:55:27.874Z,8.46
2018-11-25T17:57:56.875Z,8.48
2018-11-25T18:00:34.429Z,8.48
2018-11-25T18:03:03.771Z,8.43
2018-11-25T18:05:38.712Z,8.41
2018-11-25T18:08:01.151Z,8.40
2018-11-25T18:10:29.796Z,8.37
2018-11-25T18:12:58.511Z,8.34
2018-11-25T18:15:27.199Z,8.33
2018-11-25T18:18:06.263Z,8.30
2018-11-25T18:20:46.054Z,8.26
2018-11-25T18:23:14.682Z,8.24
2018-11-25T18:25:43.485Z,8.23
2018-11-25T18:28:12.873Z,8.22
2018-11-25T18:30:42.653Z,8.20
2018-11-25T18:33:11.411Z,8.18
2018-11-25T18:35:40.098Z,8.19
2018-11-25T18:38:09.062Z,8.20
2018-11-25T18:40:37.683Z,8.18
2018-11-25T18:43:07.207Z,8.17
2018-11-25T18:45:35.897Z,8.20
2018-11-25T18:48:04.703Z,8.20
2018-11-25T18:50:34.182Z,8.25
2018-11-25T18:53:02.836Z,8.25
2018-11-25T18:55:30.226Z,8.25
2018-11-25T18:57:59.585Z,8.19
2018-11-25T19:01:06.963Z,8.14
2018-11-25T19:03:35.875Z,8.08
2018-11-25T19:06:04.626Z,8.01
2018-11-25T19:08:33.273Z,7.95
2018-11-25T19:11:02.379Z,7.89
2018-11-25T19:13:31.336Z,7.87
2018-11-25T19:15:59.979Z,7.82
2018-11-25T19:18:28.625Z,7.76
2018-11-25T19:20:57.325Z,7.76
2018-11-25T19:23:25.973Z,7.71
2018-11-25T19:25:54.621Z,7.71
2018-11-25T19:28:23.171Z,7.44
2018-11-25T19:30:52.265Z,7.69
2018-11-25T19:33:20.978Z,7.65
2018-11-25T19:35:49.646Z,7.62
2018-11-25T19:38:18.321Z,7.62
2018-11-25T19:40:47.009Z,7.62
2018-11-25T19:43:15.780Z,7.64
2018-11-25T19:45:44.528Z,7.59
2018-11-25T19:48:13.597Z,7.56
2018-11-25T19:50:42.262Z,7.55
2018-11-25T19:53:11.588Z,7.53
2018-11-25T19:55:41.208Z,7.53
2018-11-25T19:58:09.847Z,7.53
2018-11-25T20:00:38.665Z,7.49
2018-11-25T20:03:07.830Z,7.46
2018-11-25T20:05:37.524Z,7.41
2018-11-25T20:08:06.623Z,7.30
2018-11-25T20:10:35.276Z,7.25
2018-11-25T20:13:03.954Z,7.22
2018-11-25T20:15:32.607Z,7.18
2018-11-25T20:18:01.335Z,7.18
2018-11-25T20:20:29.994Z,7.16
2018-11-25T20:22:58.670Z,7.14
2018-11-25T20:25:27.319Z,7.08
2018-11-25T20:27:57.694Z,7.05
2018-11-25T20:30:28.282Z,7.01
2018-11-25T20:33:02.009Z,6.97
2018-11-25T20:35:30.807Z,6.93
2018-11-25T20:38:04.561Z,6.93
2018-11-25T20:40:33.363Z,6.90
2018-11-25T20:43:02.116Z,6.91
2018-11-25T20:45:38.972Z,6.91
2018-11-25T20:48:04.837Z,6.93
2018-11-25T20:50:33.585Z,6.90
2018-11-25T20:53:07.468Z,6.81
2018-11-25T20:55:36.596Z,6.73
2018-11-25T20:58:06.382Z,6.69
2018-11-25T21:00:35.075Z,6.66
2018-11-25T21:03:03.719Z,6.65
2018-11-25T21:05:32.375Z,6.62
2018-11-25T21:08:00.998Z,6.61
2018-11-25T21:10:29.637Z,6.54
2018-11-25T21:12:58.247Z,6.48
2018-11-25T21:15:26.876Z,6.44
2018-11-25T21:17:56.034Z,6.37
2018-11-25T21:20:25.887Z,6.35
2018-11-25T21:22:54.601Z,6.29
2018-11-25T21:25:24.667Z,6.27
2018-11-25T21:27:53.359Z,6.25
2018-11-25T21:30:24.260Z,6.20
2018-11-25T21:32:55.203Z,6.14
2018-11-25T21:35:23.881Z,6.20
2018-11-25T21:37:52.502Z,6.22
2018-11-25T21:40:22.528Z,6.19
2018-11-25T21:42:51.726Z,6.14
2018-11-25T21:45:21.093Z,6.13
2018-11-25T21:47:49.983Z,6.12
2018-11-25T21:50:24.685Z,6.09
2018-11-25T21:52:53.341Z,6.08
2018-11-25T21:55:22.243Z,5.96
2018-11-25T21:57:50.835Z,5.95
2018-11-25T22:00:22.235Z,5.97
2018-11-25T22:02:50.970Z,5.97
2018-11-25T22:05:20.118Z,5.99
2018-11-25T22:07:48.655Z,5.96
2018-11-25T22:10:18.531Z,5.97
2018-11-25T22:12:47.496Z,4.74
2018-11-25T22:15:18.099Z,5.94
2018-11-25T22:17:46.823Z,5.89
2018-11-25T22:20:16.118Z,5.84
2018-11-25T22:22:44.834Z,5.82
2018-11-25T22:25:14.543Z,5.85
2018-11-25T22:27:43.338Z,5.87
2018-11-25T22:30:22.026Z,4.34
2018-11-25T22:32:50.834Z,5.85
2018-11-25T22:35:20.727Z,5.83
2018-11-25T22:37:49.449Z,5.79
2018-11-25T22:40:18.894Z,5.75
2018-11-25T22:42:48.444Z,5.69
2018-11-25T22:45:18.077Z,5.63
2018-11-25T22:47:46.728Z,5.59
2018-11-25T22:50:16.619Z,5.53
2018-11-25T22:52:45.433Z,5.51
2018-11-25T22:55:15.885Z,5.50
2018-11-25T22:57:44.623Z,5.48
2018-11-25T23:00:23.757Z,5.46
2018-11-25T23:02:52.434Z,5.44
2018-11-25T23:05:32.602Z,5.46
2018-11-25T23:08:01.315Z,5.47
2018-11-25T23:10:29.994Z,5.45
2018-11-25T23:12:58.679Z,5.43
2018-11-25T23:15:27.448Z,5.44
2018-11-25T23:17:56.125Z,5.38
2018-11-25T23:20:24.755Z,5.44
2018-11-25T23:22:53.355Z,5.46
2018-11-25T23:25:22.105Z,5.48
2018-11-25T23:27:50.804Z,5.50
2018-11-25T23:30:19.628Z,5.53
2018-11-25T23:32:48.454Z,5.55
2018-11-25T23:35:19.702Z,5.53
2018-11-25T23:37:48.460Z,5.53
2018-11-25T23:40:17.204Z,5.55
2018-11-25T23:42:46.574Z,5.56
2018-11-25T23:45:16.576Z,5.54
2018-11-25T23:47:46.126Z,5.58
2018-11-25T23:50:15.426Z,5.56
2018-11-25T23:52:45.897Z,5.56
2018-11-25T23:55:15.149Z,5.56
2018-11-25T23:57:43.938Z,5.56
